sensor_id;sensor_type;location;lat;lon;timestamp;P1;durP1;ratioP1;P2;durP2;ratioP2
61899;SDS011;47853;55.890;37.664;2024-03-23T00:54:36;31.33;;;20.70;;
61899;SDS011;47853;55.890;37.664;2024-03-23T00:57:01;35.72;;;21.35;;
61899;SDS011;47853;55.890;37.664;2024-03-23T00:59:27;33.95;;;19.30;;
61899;SDS011;47853;55.890;37.664;2024-03-23T01:01:52;25.30;;;14.95;;
61899;SDS011;47853;55.890;37.664;2024-03-23T01:04:18;39.13;;;22.95;;
61899;SDS011;47853;55.890;37.664;2024-03-23T01:06:43;31.77;;;16.48;;
61899;SDS011;47853;55.890;37.664;2024-03-23T01:09:09;41.47;;;22.90;;
61899;SDS011;47853;55.890;37.664;2024-03-23T01:11:34;29.85;;;17.25;;
61899;SDS011;47853;55.890;37.664;2024-03-23T01:13:59;36.08;;;19.52;;
61899;SDS011;47853;55.890;37.664;2024-03-23T01:16:25;35.17;;;18.92;;
61899;SDS011;47853;55.890;37.664;2024-03-23T01:18:50;35.35;;;20.65;;
61899;SDS011;47853;55.890;37.664;2024-03-23T01:21:16;32.35;;;19.77;;
61899;SDS011;47853;55.890;37.664;2024-03-23T01:23:41;34.72;;;19.80;;
61899;SDS011;47853;55.890;37.664;2024-03-23T01:26:07;36.38;;;20.55;;
61899;SDS011;47853;55.890;37.664;2024-03-23T01:28:32;38.40;;;22.33;;
61899;SDS011;47853;55.890;37.664;2024-03-23T01:30:57;31.55;;;18.08;;
61899;SDS011;47853;55.890;37.664;2024-03-23T01:33:23;33.35;;;20.15;;
61899;SDS011;47853;55.890;37.664;2024-03-23T01:35:48;38.40;;;20.50;;
61899;SDS011;47853;55.890;37.664;2024-03-23T01:38:14;32.80;;;18.48;;
61899;SDS011;47853;55.890;37.664;2024-03-23T01:40:39;32.25;;;19.02;;
61899;SDS011;47853;55.890;37.664;2024-03-23T01:43:05;39.72;;;22.30;;
61899;SDS011;47853;55.890;37.664;2024-03-23T01:45:32;34.55;;;20.08;;
61899;SDS011;47853;55.890;37.664;2024-03-23T01:47:58;37.53;;;21.67;;
61899;SDS011;47853;55.890;37.664;2024-03-23T01:50:24;35.53;;;20.65;;
61899;SDS011;47853;55.890;37.664;2024-03-23T01:52:50;37.20;;;21.38;;
61899;SDS011;47853;55.890;37.664;2024-03-23T01:55:16;34.45;;;20.50;;
61899;SDS011;47853;55.890;37.664;2024-03-23T01:57:41;28.40;;;17.80;;
61899;SDS011;47853;55.890;37.664;2024-03-23T02:00:07;35.10;;;20.48;;
61899;SDS011;47853;55.890;37.664;2024-03-23T02:02:33;35.45;;;21.40;;
61899;SDS011;47853;55.890;37.664;2024-03-23T02:04:58;34.13;;;19.75;;
61899;SDS011;47853;55.890;37.664;2024-03-23T02:07:24;38.35;;;21.40;;
61899;SDS011;47853;55.890;37.664;2024-03-23T02:09:50;38.42;;;20.73;;
61899;SDS011;47853;55.890;37.664;2024-03-23T02:12:16;43.95;;;21.15;;
61899;SDS011;47853;55.890;37.664;2024-03-23T02:14:42;41.75;;;20.08;;
61899;SDS011;47853;55.890;37.664;2024-03-23T02:17:08;38.85;;;21.95;;
61899;SDS011;47853;55.890;37.664;2024-03-23T02:19:34;38.70;;;22.90;;
61899;SDS011;47853;55.890;37.664;2024-03-23T02:21:59;33.78;;;19.48;;
61899;SDS011;47853;55.890;37.664;2024-03-23T02:24:25;37.83;;;20.40;;
61899;SDS011;47853;55.890;37.664;2024-03-23T02:26:51;34.08;;;19.00;;
61899;SDS011;47853;55.890;37.664;2024-03-23T02:29:16;35.92;;;21.08;;
61899;SDS011;47853;55.890;37.664;2024-03-23T02:31:41;41.63;;;20.83;;
61899;SDS011;47853;55.890;37.664;2024-03-23T02:34:07;43.08;;;23.05;;
61899;SDS011;47853;55.890;37.664;2024-03-23T02:36:32;38.08;;;21.02;;
61899;SDS011;47853;55.890;37.664;2024-03-23T02:38:58;41.47;;;24.58;;
61899;SDS011;47853;55.890;37.664;2024-03-23T02:41:23;36.13;;;20.95;;
61899;SDS011;47853;55.890;37.664;2024-03-23T02:43:49;40.13;;;23.40;;
61899;SDS011;47853;55.890;37.664;2024-03-23T02:46:15;42.72;;;23.77;;
61899;SDS011;47853;55.890;37.664;2024-03-23T02:48:40;32.67;;;20.13;;
61899;SDS011;47853;55.890;37.664;2024-03-23T02:51:06;36.30;;;20.17;;
61899;SDS011;47853;55.890;37.664;2024-03-23T02:53:31;29.20;;;20.08;;
61899;SDS011;47853;55.890;37.664;2024-03-23T02:56:00;39.53;;;22.77;;
61899;SDS011;47853;55.890;37.664;2024-03-23T02:58:25;37.70;;;22.13;;
61899;SDS011;47853;55.890;37.664;2024-03-23T03:00:51;35.50;;;20.23;;
61899;SDS011;47853;55.890;37.664;2024-03-23T03:03:16;31.60;;;18.77;;
61899;SDS011;47853;55.890;37.664;2024-03-23T03:05:41;31.92;;;17.40;;
61899;SDS011;47853;55.890;37.664;2024-03-23T03:08:07;36.92;;;21.77;;
61899;SDS011;47853;55.890;37.664;2024-03-23T03:10:32;35.17;;;19.85;;
61899;SDS011;47853;55.890;37.664;2024-03-23T03:12:58;46.65;;;24.88;;
61899;SDS011;47853;55.890;37.664;2024-03-23T03:15:23;33.25;;;20.75;;
61899;SDS011;47853;55.890;37.664;2024-03-23T03:17:48;26.25;;;16.05;;
61899;SDS011;47853;55.890;37.664;2024-03-23T03:20:14;41.83;;;23.83;;
61899;SDS011;47853;55.890;37.664;2024-03-23T03:22:39;38.80;;;22.23;;
61899;SDS011;47853;55.890;37.664;2024-03-23T03:25:05;43.20;;;21.20;;
61899;SDS011;47853;55.890;37.664;2024-03-23T03:27:31;36.08;;;21.02;;
61899;SDS011;47853;55.890;37.664;2024-03-23T03:29:56;36.67;;;20.50;;
61899;SDS011;47853;55.890;37.664;2024-03-23T03:32:22;40.00;;;21.60;;
61899;SDS011;47853;55.890;37.664;2024-03-23T03:34:47;34.50;;;21.42;;
61899;SDS011;47853;55.890;37.664;2024-03-23T03:37:12;44.33;;;24.17;;
61899;SDS011;47853;55.890;37.664;2024-03-23T03:39:38;32.08;;;18.50;;
61899;SDS011;47853;55.890;37.664;2024-03-23T03:42:03;39.15;;;23.58;;
61899;SDS011;47853;55.890;37.664;2024-03-23T03:44:29;37.67;;;19.60;;
61899;SDS011;47853;55.890;37.664;2024-03-23T03:46:54;41.47;;;22.38;;
61899;SDS011;47853;55.890;37.664;2024-03-23T03:49:19;36.83;;;21.27;;
61899;SDS011;47853;55.890;37.664;2024-03-23T03:51:45;43.72;;;23.20;;
61899;SDS011;47853;55.890;37.664;2024-03-23T03:54:10;28.33;;;16.80;;
61899;SDS011;47853;55.890;37.664;2024-03-23T03:56:36;39.90;;;22.38;;
61899;SDS011;47853;55.890;37.664;2024-03-23T03:59:01;41.53;;;23.52;;
61899;SDS011;47853;55.890;37.664;2024-03-23T04:01:26;41.83;;;24.63;;
61899;SDS011;47853;55.890;37.664;2024-03-23T04:03:52;33.83;;;20.65;;
61899;SDS011;47853;55.890;37.664;2024-03-23T04:06:20;38.25;;;21.83;;
61899;SDS011;47853;55.890;37.664;2024-03-23T04:08:46;42.03;;;20.65;;
61899;SDS011;47853;55.890;37.664;2024-03-23T04:11:11;40.20;;;21.27;;
61899;SDS011;47853;55.890;37.664;2024-03-23T04:13:37;32.78;;;18.70;;
61899;SDS011;47853;55.890;37.664;2024-03-23T04:16:02;35.17;;;19.63;;
61899;SDS011;47853;55.890;37.664;2024-03-23T04:18:28;32.08;;;18.45;;
61899;SDS011;47853;55.890;37.664;2024-03-23T04:20:53;33.60;;;20.40;;
61899;SDS011;47853;55.890;37.664;2024-03-23T04:23:19;36.88;;;21.25;;
61899;SDS011;47853;55.890;37.664;2024-03-23T04:25:44;36.40;;;21.10;;
61899;SDS011;47853;55.890;37.664;2024-03-23T04:28:09;41.90;;;22.08;;
61899;SDS011;47853;55.890;37.664;2024-03-23T04:30:35;42.92;;;22.13;;
61899;SDS011;47853;55.890;37.664;2024-03-23T04:33:00;37.35;;;21.77;;
61899;SDS011;47853;55.890;37.664;2024-03-23T04:35:26;33.30;;;19.05;;
61899;SDS011;47853;55.890;37.664;2024-03-23T04:37:52;26.23;;;16.63;;
61899;SDS011;47853;55.890;37.664;2024-03-23T04:40:18;34.72;;;20.60;;
61899;SDS011;47853;55.890;37.664;2024-03-23T04:42:44;42.40;;;24.13;;
61899;SDS011;47853;55.890;37.664;2024-03-23T04:45:09;35.13;;;21.23;;
61899;SDS011;47853;55.890;37.664;2024-03-23T04:47:35;27.30;;;14.07;;
61899;SDS011;47853;55.890;37.664;2024-03-23T04:50:01;33.53;;;18.50;;
61899;SDS011;47853;55.890;37.664;2024-03-23T04:52:26;34.42;;;21.30;;
61899;SDS011;47853;55.890;37.664;2024-03-23T04:54:52;31.35;;;19.88;;
61899;SDS011;47853;55.890;37.664;2024-03-23T04:57:17;33.85;;;20.48;;
61899;SDS011;47853;55.890;37.664;2024-03-23T04:59:43;30.98;;;19.27;;
61899;SDS011;47853;55.890;37.664;2024-03-23T05:02:08;34.20;;;20.23;;
61899;SDS011;47853;55.890;37.664;2024-03-23T05:04:35;34.40;;;22.40;;
61899;SDS011;47853;55.890;37.664;2024-03-23T05:07:00;28.63;;;17.95;;
61899;SDS011;47853;55.890;37.664;2024-03-23T05:09:26;32.50;;;21.40;;
61899;SDS011;47853;55.890;37.664;2024-03-23T05:11:51;35.42;;;23.83;;
61899;SDS011;47853;55.890;37.664;2024-03-23T05:14:16;33.70;;;20.15;;
61899;SDS011;47853;55.890;37.664;2024-03-23T05:16:42;37.65;;;21.80;;
61899;SDS011;47853;55.890;37.664;2024-03-23T05:19:07;30.55;;;19.40;;
61899;SDS011;47853;55.890;37.664;2024-03-23T05:21:33;31.05;;;16.95;;
61899;SDS011;47853;55.890;37.664;2024-03-23T05:23:58;29.45;;;17.88;;
61899;SDS011;47853;55.890;37.664;2024-03-23T05:26:24;37.03;;;22.42;;
61899;SDS011;47853;55.890;37.664;2024-03-23T05:28:49;32.70;;;19.17;;
61899;SDS011;47853;55.890;37.664;2024-03-23T05:31:24;19.38;;;12.60;;
61899;SDS011;47853;55.890;37.664;2024-03-23T05:33:50;31.20;;;20.27;;
61899;SDS011;47853;55.890;37.664;2024-03-23T05:36:16;34.25;;;19.15;;
61899;SDS011;47853;55.890;37.664;2024-03-23T05:38:42;28.35;;;18.42;;
61899;SDS011;47853;55.890;37.664;2024-03-23T05:41:08;37.55;;;20.90;;
61899;SDS011;47853;55.890;37.664;2024-03-23T05:43:33;28.42;;;18.45;;
61899;SDS011;47853;55.890;37.664;2024-03-23T05:45:59;31.77;;;20.05;;
61899;SDS011;47853;55.890;37.664;2024-03-23T05:48:25;28.98;;;18.10;;
61899;SDS011;47853;55.890;37.664;2024-03-23T05:50:52;31.50;;;18.70;;
61899;SDS011;47853;55.890;37.664;2024-03-23T05:53:18;30.15;;;17.73;;
61899;SDS011;47853;55.890;37.664;2024-03-23T05:55:44;28.70;;;18.17;;
61899;SDS011;47853;55.890;37.664;2024-03-23T05:58:09;34.50;;;21.67;;
61899;SDS011;47853;55.890;37.664;2024-03-23T06:00:35;27.63;;;18.58;;
61899;SDS011;47853;55.890;37.664;2024-03-23T06:03:01;24.15;;;15.02;;
61899;SDS011;47853;55.890;37.664;2024-03-23T06:05:26;26.95;;;18.55;;
61899;SDS011;47853;55.890;37.664;2024-03-23T06:07:52;32.78;;;18.77;;
61899;SDS011;47853;55.890;37.664;2024-03-23T06:10:18;28.42;;;16.40;;
61899;SDS011;47853;55.890;37.664;2024-03-23T06:12:43;32.40;;;18.05;;
61899;SDS011;47853;55.890;37.664;2024-03-23T06:15:09;26.17;;;16.42;;
61899;SDS011;47853;55.890;37.664;2024-03-23T06:17:34;25.30;;;15.27;;
61899;SDS011;47853;55.890;37.664;2024-03-23T06:19:59;21.63;;;14.18;;
61899;SDS011;47853;55.890;37.664;2024-03-23T06:22:25;27.15;;;18.05;;
61899;SDS011;47853;55.890;37.664;2024-03-23T06:25:01;22.50;;;14.07;;
61899;SDS011;47853;55.890;37.664;2024-03-23T06:27:26;22.98;;;14.38;;
61899;SDS011;47853;55.890;37.664;2024-03-23T06:29:52;25.95;;;15.57;;
61899;SDS011;47853;55.890;37.664;2024-03-23T06:32:17;19.88;;;13.80;;
61899;SDS011;47853;55.890;37.664;2024-03-23T06:34:43;25.75;;;16.55;;
61899;SDS011;47853;55.890;37.664;2024-03-23T06:37:08;22.52;;;15.23;;
61899;SDS011;47853;55.890;37.664;2024-03-23T06:39:34;19.10;;;13.65;;
61899;SDS011;47853;55.890;37.664;2024-03-23T06:41:59;25.27;;;12.95;;
61899;SDS011;47853;55.890;37.664;2024-03-23T06:44:25;22.90;;;11.65;;
61899;SDS011;47853;55.890;37.664;2024-03-23T06:46:50;20.38;;;12.85;;
61899;SDS011;47853;55.890;37.664;2024-03-23T06:49:16;18.35;;;12.75;;
61899;SDS011;47853;55.890;37.664;2024-03-23T06:51:41;16.38;;;11.20;;
61899;SDS011;47853;55.890;37.664;2024-03-23T06:54:06;17.60;;;11.77;;
61899;SDS011;47853;55.890;37.664;2024-03-23T06:56:32;20.85;;;12.07;;
61899;SDS011;47853;55.890;37.664;2024-03-23T06:58:57;20.92;;;13.80;;
61899;SDS011;47853;55.890;37.664;2024-03-23T07:01:24;17.65;;;12.60;;
61899;SDS011;47853;55.890;37.664;2024-03-23T07:03:49;19.88;;;14.20;;
61899;SDS011;47853;55.890;37.664;2024-03-23T07:06:15;22.05;;;13.35;;
61899;SDS011;47853;55.890;37.664;2024-03-23T07:08:40;17.83;;;12.10;;
61899;SDS011;47853;55.890;37.664;2024-03-23T07:11:06;22.63;;;15.15;;
61899;SDS011;47853;55.890;37.664;2024-03-23T07:13:31;17.15;;;11.90;;
61899;SDS011;47853;55.890;37.664;2024-03-23T07:15:56;14.75;;;10.02;;
61899;SDS011;47853;55.890;37.664;2024-03-23T07:18:22;18.23;;;12.15;;
61899;SDS011;47853;55.890;37.664;2024-03-23T07:20:54;14.40;;;10.23;;
61899;SDS011;47853;55.890;37.664;2024-03-23T07:23:21;18.65;;;12.60;;
61899;SDS011;47853;55.890;37.664;2024-03-23T07:25:55;27.15;;;15.60;;
61899;SDS011;47853;55.890;37.664;2024-03-23T07:28:24;18.40;;;12.30;;
61899;SDS011;47853;55.890;37.664;2024-03-23T07:31:06;15.68;;;11.13;;
61899;SDS011;47853;55.890;37.664;2024-03-23T07:33:33;19.80;;;12.30;;
61899;SDS011;47853;55.890;37.664;2024-03-23T07:35:58;24.58;;;12.70;;
61899;SDS011;47853;55.890;37.664;2024-03-23T07:38:24;18.80;;;11.07;;
61899;SDS011;47853;55.890;37.664;2024-03-23T07:40:51;20.23;;;11.68;;
61899;SDS011;47853;55.890;37.664;2024-03-23T07:43:16;20.00;;;12.55;;
61899;SDS011;47853;55.890;37.664;2024-03-23T07:45:42;14.88;;;10.68;;
61899;SDS011;47853;55.890;37.664;2024-03-23T07:48:07;15.73;;;11.18;;
61899;SDS011;47853;55.890;37.664;2024-03-23T07:50:32;23.75;;;16.45;;
61899;SDS011;47853;55.890;37.664;2024-03-23T07:52:58;19.70;;;11.63;;
61899;SDS011;47853;55.890;37.664;2024-03-23T07:55:23;23.08;;;13.68;;
61899;SDS011;47853;55.890;37.664;2024-03-23T07:57:50;15.60;;;11.77;;
61899;SDS011;47853;55.890;37.664;2024-03-23T08:00:16;16.88;;;12.13;;
61899;SDS011;47853;55.890;37.664;2024-03-23T08:02:42;13.57;;;10.73;;
61899;SDS011;47853;55.890;37.664;2024-03-23T08:05:07;19.90;;;12.10;;
61899;SDS011;47853;55.890;37.664;2024-03-23T08:07:33;17.40;;;10.60;;
61899;SDS011;47853;55.890;37.664;2024-03-23T08:09:58;29.38;;;21.05;;
61899;SDS011;47853;55.890;37.664;2024-03-23T08:12:26;15.07;;;11.48;;
61899;SDS011;47853;55.890;37.664;2024-03-23T08:14:52;16.92;;;11.00;;
61899;SDS011;47853;55.890;37.664;2024-03-23T08:17:17;20.27;;;12.90;;
61899;SDS011;47853;55.890;37.664;2024-03-23T08:19:43;14.15;;;10.27;;
61899;SDS011;47853;55.890;37.664;2024-03-23T08:22:08;16.70;;;12.18;;
61899;SDS011;47853;55.890;37.664;2024-03-23T08:24:34;16.27;;;10.80;;
61899;SDS011;47853;55.890;37.664;2024-03-23T08:26:59;15.73;;;11.73;;
61899;SDS011;47853;55.890;37.664;2024-03-23T08:29:25;17.48;;;12.82;;
61899;SDS011;47853;55.890;37.664;2024-03-23T08:31:51;16.13;;;11.00;;
61899;SDS011;47853;55.890;37.664;2024-03-23T08:34:16;16.67;;;12.45;;
61899;SDS011;47853;55.890;37.664;2024-03-23T08:36:41;15.75;;;10.70;;
61899;SDS011;47853;55.890;37.664;2024-03-23T08:39:07;9.10;;;7.93;;
61899;SDS011;47853;55.890;37.664;2024-03-23T08:41:32;17.55;;;11.40;;
61899;SDS011;47853;55.890;37.664;2024-03-23T08:44:00;17.73;;;10.90;;
61899;SDS011;47853;55.890;37.664;2024-03-23T08:46:26;17.60;;;12.18;;
61899;SDS011;47853;55.890;37.664;2024-03-23T08:48:51;15.30;;;11.80;;
61899;SDS011;47853;55.890;37.664;2024-03-23T08:51:17;18.10;;;10.35;;
61899;SDS011;47853;55.890;37.664;2024-03-23T08:53:42;17.38;;;10.95;;
61899;SDS011;47853;55.890;37.664;2024-03-23T08:56:09;15.75;;;11.30;;
61899;SDS011;47853;55.890;37.664;2024-03-23T08:58:35;15.77;;;11.88;;
61899;SDS011;47853;55.890;37.664;2024-03-23T09:03:34;14.48;;;10.45;;
61899;SDS011;47853;55.890;37.664;2024-03-23T09:06:01;13.00;;;9.55;;
61899;SDS011;47853;55.890;37.664;2024-03-23T09:08:27;10.18;;;8.45;;
61899;SDS011;47853;55.890;37.664;2024-03-23T09:10:53;13.00;;;10.55;;
61899;SDS011;47853;55.890;37.664;2024-03-23T09:13:18;14.60;;;11.57;;
61899;SDS011;47853;55.890;37.664;2024-03-23T09:15:50;12.45;;;9.82;;
61899;SDS011;47853;55.890;37.664;2024-03-23T09:18:17;16.33;;;10.27;;
61899;SDS011;47853;55.890;37.664;2024-03-23T09:20:42;16.88;;;11.27;;
61899;SDS011;47853;55.890;37.664;2024-03-23T09:23:08;19.50;;;11.98;;
61899;SDS011;47853;55.890;37.664;2024-03-23T09:25:40;15.48;;;10.98;;
61899;SDS011;47853;55.890;37.664;2024-03-23T09:28:08;17.25;;;11.48;;
61899;SDS011;47853;55.890;37.664;2024-03-23T09:30:34;20.65;;;11.52;;
61899;SDS011;47853;55.890;37.664;2024-03-23T09:33:00;13.30;;;9.90;;
61899;SDS011;47853;55.890;37.664;2024-03-23T09:35:25;15.73;;;10.77;;
61899;SDS011;47853;55.890;37.664;2024-03-23T09:37:51;14.93;;;10.63;;
61899;SDS011;47853;55.890;37.664;2024-03-23T09:40:16;14.18;;;11.13;;
61899;SDS011;47853;55.890;37.664;2024-03-23T09:42:42;16.23;;;9.82;;
61899;SDS011;47853;55.890;37.664;2024-03-23T09:45:11;13.73;;;10.30;;
61899;SDS011;47853;55.890;37.664;2024-03-23T09:47:42;10.40;;;9.30;;
61899;SDS011;47853;55.890;37.664;2024-03-23T09:50:08;14.60;;;10.82;;
61899;SDS011;47853;55.890;37.664;2024-03-23T09:52:34;12.63;;;9.27;;
61899;SDS011;47853;55.890;37.664;2024-03-23T09:55:00;15.90;;;10.25;;
61899;SDS011;47853;55.890;37.664;2024-03-23T09:57:26;18.23;;;13.00;;
61899;SDS011;47853;55.890;37.664;2024-03-23T09:59:51;12.75;;;10.13;;
61899;SDS011;47853;55.890;37.664;2024-03-23T10:02:16;14.80;;;12.05;;
61899;SDS011;47853;55.890;37.664;2024-03-23T10:04:42;16.08;;;11.77;;
61899;SDS011;47853;55.890;37.664;2024-03-23T10:07:20;14.68;;;10.32;;
61899;SDS011;47853;55.890;37.664;2024-03-23T10:09:46;17.42;;;11.82;;
61899;SDS011;47853;55.890;37.664;2024-03-23T10:12:15;16.70;;;11.13;;
61899;SDS011;47853;55.890;37.664;2024-03-23T10:14:41;14.05;;;10.80;;
61899;SDS011;47853;55.890;37.664;2024-03-23T10:17:14;12.15;;;9.48;;
61899;SDS011;47853;55.890;37.664;2024-03-23T10:19:41;13.88;;;10.18;;
61899;SDS011;47853;55.890;37.664;2024-03-23T10:22:07;16.88;;;10.77;;
61899;SDS011;47853;55.890;37.664;2024-03-23T10:24:33;13.40;;;11.50;;
61899;SDS011;47853;55.890;37.664;2024-03-23T10:26:58;17.08;;;10.18;;
61899;SDS011;47853;55.890;37.664;2024-03-23T10:29:24;14.38;;;9.60;;
61899;SDS011;47853;55.890;37.664;2024-03-23T10:31:49;12.60;;;9.57;;
61899;SDS011;47853;55.890;37.664;2024-03-23T10:34:15;14.25;;;9.82;;
61899;SDS011;47853;55.890;37.664;2024-03-23T10:36:40;12.50;;;9.63;;
61899;SDS011;47853;55.890;37.664;2024-03-23T10:39:06;15.02;;;10.05;;
61899;SDS011;47853;55.890;37.664;2024-03-23T10:41:32;13.50;;;9.60;;
61899;SDS011;47853;55.890;37.664;2024-03-23T10:43:58;15.93;;;10.85;;
61899;SDS011;47853;55.890;37.664;2024-03-23T10:46:25;10.82;;;7.90;;
61899;SDS011;47853;55.890;37.664;2024-03-23T10:48:51;11.82;;;9.30;;
61899;SDS011;47853;55.890;37.664;2024-03-23T10:51:16;11.70;;;9.10;;
61899;SDS011;47853;55.890;37.664;2024-03-23T10:53:42;15.00;;;10.15;;
61899;SDS011;47853;55.890;37.664;2024-03-23T10:56:07;13.07;;;8.95;;
61899;SDS011;47853;55.890;37.664;2024-03-23T11:01:04;9.52;;;8.27;;
61899;SDS011;47853;55.890;37.664;2024-03-23T11:03:30;14.32;;;9.20;;
61899;SDS011;47853;55.890;37.664;2024-03-23T11:05:56;12.52;;;8.38;;
61899;SDS011;47853;55.890;37.664;2024-03-23T11:08:31;11.75;;;8.70;;
61899;SDS011;47853;55.890;37.664;2024-03-23T11:11:16;12.27;;;9.50;;
61899;SDS011;47853;55.890;37.664;2024-03-23T11:13:52;11.63;;;9.07;;
61899;SDS011;47853;55.890;37.664;2024-03-23T11:16:22;11.50;;;8.60;;
61899;SDS011;47853;55.890;37.664;2024-03-23T11:18:47;16.25;;;10.40;;
61899;SDS011;47853;55.890;37.664;2024-03-23T11:24:16;11.13;;;9.13;;
61899;SDS011;47853;55.890;37.664;2024-03-23T11:26:41;12.52;;;8.60;;
61899;SDS011;47853;55.890;37.664;2024-03-23T11:29:16;11.95;;;9.25;;
61899;SDS011;47853;55.890;37.664;2024-03-23T11:31:46;12.48;;;10.32;;
61899;SDS011;47853;55.890;37.664;2024-03-23T11:34:12;10.52;;;8.60;;
61899;SDS011;47853;55.890;37.664;2024-03-23T11:36:38;12.52;;;9.30;;
61899;SDS011;47853;55.890;37.664;2024-03-23T11:39:13;12.05;;;9.70;;
61899;SDS011;47853;55.890;37.664;2024-03-23T11:41:45;13.25;;;10.25;;
61899;SDS011;47853;55.890;37.664;2024-03-23T11:44:21;11.77;;;9.55;;
61899;SDS011;47853;55.890;37.664;2024-03-23T11:46:48;13.38;;;10.13;;
61899;SDS011;47853;55.890;37.664;2024-03-23T11:49:23;12.50;;;9.60;;
61899;SDS011;47853;55.890;37.664;2024-03-23T11:51:54;11.65;;;9.18;;
61899;SDS011;47853;55.890;37.664;2024-03-23T11:54:21;14.43;;;10.98;;
61899;SDS011;47853;55.890;37.664;2024-03-23T11:56:55;11.50;;;9.30;;
61899;SDS011;47853;55.890;37.664;2024-03-23T12:02:08;13.57;;;9.23;;
61899;SDS011;47853;55.890;37.664;2024-03-23T12:05:04;12.52;;;10.02;;
61899;SDS011;47853;55.890;37.664;2024-03-23T12:07:42;16.38;;;10.82;;
61899;SDS011;47853;55.890;37.664;2024-03-23T12:10:08;12.00;;;10.02;;
61899;SDS011;47853;55.890;37.664;2024-03-23T12:12:33;11.93;;;8.85;;
61899;SDS011;47853;55.890;37.664;2024-03-23T12:17:27;13.00;;;10.15;;
61899;SDS011;47853;55.890;37.664;2024-03-23T12:19:53;12.88;;;10.23;;
61899;SDS011;47853;55.890;37.664;2024-03-23T12:22:21;14.80;;;10.85;;
61899;SDS011;47853;55.890;37.664;2024-03-23T12:24:47;13.32;;;10.77;;
61899;SDS011;47853;55.890;37.664;2024-03-23T12:27:13;15.27;;;11.43;;
61899;SDS011;47853;55.890;37.664;2024-03-23T12:29:39;14.13;;;10.90;;
61899;SDS011;47853;55.890;37.664;2024-03-23T12:32:04;21.90;;;11.98;;
61899;SDS011;47853;55.890;37.664;2024-03-23T12:34:30;19.73;;;12.50;;
61899;SDS011;47853;55.890;37.664;2024-03-23T12:36:55;16.58;;;10.70;;
61899;SDS011;47853;55.890;37.664;2024-03-23T12:39:21;15.70;;;12.30;;
61899;SDS011;47853;55.890;37.664;2024-03-23T12:41:47;16.33;;;10.75;;
61899;SDS011;47853;55.890;37.664;2024-03-23T12:44:13;18.88;;;12.05;;
61899;SDS011;47853;55.890;37.664;2024-03-23T12:46:39;16.63;;;11.07;;
61899;SDS011;47853;55.890;37.664;2024-03-23T12:49:05;18.10;;;13.52;;
61899;SDS011;47853;55.890;37.664;2024-03-23T12:51:30;18.27;;;11.60;;
61899;SDS011;47853;55.890;37.664;2024-03-23T12:53:56;19.33;;;12.52;;
61899;SDS011;47853;55.890;37.664;2024-03-23T12:56:21;17.02;;;12.02;;
61899;SDS011;47853;55.890;37.664;2024-03-23T12:58:47;17.15;;;11.73;;
61899;SDS011;47853;55.890;37.664;2024-03-23T13:01:12;18.08;;;12.57;;
61899;SDS011;47853;55.890;37.664;2024-03-23T13:03:38;17.17;;;12.23;;
61899;SDS011;47853;55.890;37.664;2024-03-23T13:06:03;21.58;;;12.30;;
61899;SDS011;47853;55.890;37.664;2024-03-23T13:08:29;16.98;;;11.70;;
61899;SDS011;47853;55.890;37.664;2024-03-23T13:10:54;18.83;;;12.95;;
61899;SDS011;47853;55.890;37.664;2024-03-23T13:13:19;16.27;;;11.88;;
61899;SDS011;47853;55.890;37.664;2024-03-23T13:15:51;17.80;;;13.00;;
61899;SDS011;47853;55.890;37.664;2024-03-23T13:18:16;19.83;;;13.35;;
61899;SDS011;47853;55.890;37.664;2024-03-23T13:20:42;19.10;;;12.18;;
61899;SDS011;47853;55.890;37.664;2024-03-23T13:23:07;17.98;;;12.80;;
61899;SDS011;47853;55.890;37.664;2024-03-23T13:25:33;13.57;;;9.77;;
61899;SDS011;47853;55.890;37.664;2024-03-23T13:27:58;21.15;;;13.32;;
61899;SDS011;47853;55.890;37.664;2024-03-23T13:30:24;17.88;;;12.02;;
61899;SDS011;47853;55.890;37.664;2024-03-23T13:32:49;20.08;;;13.45;;
61899;SDS011;47853;55.890;37.664;2024-03-23T13:35:15;21.75;;;12.93;;
61899;SDS011;47853;55.890;37.664;2024-03-23T13:37:40;19.90;;;13.70;;
61899;SDS011;47853;55.890;37.664;2024-03-23T13:40:06;22.27;;;13.13;;
61899;SDS011;47853;55.890;37.664;2024-03-23T13:42:32;20.55;;;15.40;;
61899;SDS011;47853;55.890;37.664;2024-03-23T13:44:57;22.33;;;14.20;;
61899;SDS011;47853;55.890;37.664;2024-03-23T13:47:23;19.35;;;12.57;;
61899;SDS011;47853;55.890;37.664;2024-03-23T13:49:48;19.95;;;14.55;;
61899;SDS011;47853;55.890;37.664;2024-03-23T13:52:14;22.08;;;14.15;;
61899;SDS011;47853;55.890;37.664;2024-03-23T13:54:39;22.65;;;14.35;;
61899;SDS011;47853;55.890;37.664;2024-03-23T13:57:05;22.85;;;16.27;;
61899;SDS011;47853;55.890;37.664;2024-03-23T13:59:33;21.92;;;14.82;;
61899;SDS011;47853;55.890;37.664;2024-03-23T14:01:58;27.55;;;17.17;;
61899;SDS011;47853;55.890;37.664;2024-03-23T14:04:24;22.88;;;16.20;;
61899;SDS011;47853;55.890;37.664;2024-03-23T14:06:49;18.98;;;13.80;;
61899;SDS011;47853;55.890;37.664;2024-03-23T14:09:15;20.65;;;12.98;;
61899;SDS011;47853;55.890;37.664;2024-03-23T14:11:41;16.77;;;11.25;;
61899;SDS011;47853;55.890;37.664;2024-03-23T14:14:07;18.38;;;12.13;;
61899;SDS011;47853;55.890;37.664;2024-03-23T14:16:32;18.05;;;13.07;;
61899;SDS011;47853;55.890;37.664;2024-03-23T14:18:58;21.42;;;13.27;;
61899;SDS011;47853;55.890;37.664;2024-03-23T14:21:23;16.30;;;11.50;;
61899;SDS011;47853;55.890;37.664;2024-03-23T14:23:49;22.05;;;13.48;;
61899;SDS011;47853;55.890;37.664;2024-03-23T14:26:14;14.45;;;10.98;;
61899;SDS011;47853;55.890;37.664;2024-03-23T14:28:40;19.92;;;12.25;;
61899;SDS011;47853;55.890;37.664;2024-03-23T14:31:08;14.25;;;10.25;;
61899;SDS011;47853;55.890;37.664;2024-03-23T14:33:33;14.38;;;9.88;;
61899;SDS011;47853;55.890;37.664;2024-03-23T14:35:59;21.08;;;11.45;;
61899;SDS011;47853;55.890;37.664;2024-03-23T14:38:25;15.88;;;11.32;;
61899;SDS011;47853;55.890;37.664;2024-03-23T14:40:51;16.73;;;10.15;;
61899;SDS011;47853;55.890;37.664;2024-03-23T14:43:16;19.40;;;12.65;;
61899;SDS011;47853;55.890;37.664;2024-03-23T14:45:48;13.45;;;9.60;;
61899;SDS011;47853;55.890;37.664;2024-03-23T14:48:30;10.70;;;7.82;;
61899;SDS011;47853;55.890;37.664;2024-03-23T14:50:59;16.27;;;10.23;;
61899;SDS011;47853;55.890;37.664;2024-03-23T14:53:25;10.57;;;8.93;;
61899;SDS011;47853;55.890;37.664;2024-03-23T14:55:51;18.15;;;9.95;;
61899;SDS011;47853;55.890;37.664;2024-03-23T14:58:16;12.45;;;9.27;;
61899;SDS011;47853;55.890;37.664;2024-03-23T15:00:41;12.45;;;9.18;;
61899;SDS011;47853;55.890;37.664;2024-03-23T15:03:07;10.25;;;8.52;;
61899;SDS011;47853;55.890;37.664;2024-03-23T15:05:35;12.68;;;9.10;;
61899;SDS011;47853;55.890;37.664;2024-03-23T15:08:04;11.07;;;9.00;;
61899;SDS011;47853;55.890;37.664;2024-03-23T15:10:29;11.05;;;8.90;;
61899;SDS011;47853;55.890;37.664;2024-03-23T15:12:57;13.13;;;9.05;;